0F2 weather

Bowie Municipal Airport
Bowie, Texas, United States

Public forecast

Using degrees Fahrenheit for public forecast. Weather courtesy of forecast.io.

METAR (pilot weather report)

Retrieved 2019/05/26 10:35 UTC (0 seconds ago):

K0F2 261035Z AUTO 14007KT 10SM CLR 22/20 A3001 RMK AO2 T02170195

TAF (pilot weather forecast)

Closest forecast is Sheppard Air Force Base-Wichita Falls Municipal Airport, 42.6 nm (79.0 km) WNW. Retrieved 2019/05/26 06:27 UTC (4 hours ago):

TAF KSPS 260525Z 2606/2706 16014KT P6SM BKN250 FM261400 17018KT P6SM SCT030 SCT250 TEMPO 2614/2617 BKN025